CDT,Max TemperatureF,Mean TemperatureF,Min TemperatureF,Max Dew PointF,MeanDew PointF,Min DewpointF,Max Humidity, Mean Humidity, Min Humidity, Max Sea Level PressureIn, Mean Sea Level PressureIn, Min Sea Level PressureIn, Max VisibilityMiles, Mean VisibilityMiles, Min VisibilityMiles, Max Wind SpeedMPH, Mean Wind SpeedMPH, Max Gust SpeedMPH,PrecipitationIn, CloudCover, Events, WindDirDegrees
2012-10-1,72,57,41,46,39,32,71,49,27,30.02,29.94,29.86,10,10,10,22,9,31,0.00,1,,339
2012-10-2,72,51,30,38,33,29,92,58,24,30.02,29.94,29.85,10,10,10,18,5,23,0.00,0,,164
2012-10-3,77,57,37,41,35,27,85,51,16,29.94,29.88,29.81,10,10,10,17,5,21,0.00,0,,132
2012-10-4,64,52,40,42,33,27,76,58,39,30.18,29.96,29.70,10,10,10,33,21,45,T,7,,264
2012-10-5,43,39,34,29,26,24,75,62,49,30.21,30.17,30.11,10,10,10,30,18,36,0.00,8,,289
2012-10-6,46,36,25,29,24,18,75,56,37,30.36,30.27,30.18,10,10,10,16,7,24,0.00,6,,331
2012-10-7,54,38,21,23,18,14,81,51,20,30.27,30.08,29.88,10,10,10,22,8,26,0.00,0,,193
2012-10-8,61,45,28,39,29,20,79,59,38,29.86,29.72,29.57,10,10,10,24,9,32,T,4,,196
2012-10-9,48,40,31,36,29,24,85,65,45,30.02,29.85,29.72,10,10,8,29,13,36,0.00,6,,279
2012-10-10,52,39,25,27,24,20,88,58,28,30.13,30.04,29.86,10,10,10,20,8,29,0.00,4,,266
2012-10-11,48,38,28,34,25,15,82,54,26,30.45,30.14,29.85,10,10,10,21,9,26,T,3,,345
2012-10-12,52,35,18,23,16,11,91,56,20,30.49,30.32,30.02,10,10,10,22,9,26,0.00,2,,160
2012-10-13,56,45,34,48,40,20,100,65,29,29.98,29.80,29.70,10,6,0,18,6,25,0.00,7,Fog,160
2012-10-14,60,47,34,41,37,32,100,70,40,29.94,29.83,29.76,10,6,0,20,8,29,0.00,5,Fog,345
2012-10-15,61,45,28,38,33,26,92,64,36,29.99,29.90,29.71,10,10,4,16,7,21,0.00,2,,200
2012-10-16,73,62,50,47,42,38,83,59,35,29.68,29.52,29.38,10,10,10,14,6,18,0.00,1,,157
2012-10-17,65,56,46,48,44,39,93,71,48,29.37,29.23,29.11,10,10,6,26,11,35,T,6,Rain,238
2012-10-18,51,47,43,45,43,39,93,85,76,29.43,29.26,29.16,10,9,2,13,4,15,0.09,8,Rain,305
2012-10-19,56,48,40,47,44,38,100,80,59,29.78,29.61,29.42,10,7,0,13,4,17,0.08,7,Fog-Rain,354
2012-10-20,50,45,40,45,42,39,100,87,74,29.83,29.78,29.73,10,6,0,14,5,17,0.00,7,Fog,163
2012-10-21,65,53,41,44,42,40,96,70,44,29.95,29.85,29.79,10,9,4,17,7,23,0.00,0,,86
2012-10-22,56,50,44,45,44,41,89,78,66,30.03,29.97,29.92,10,10,10,18,9,25,T,6,,41
2012-10-23,60,56,51,50,46,43,89,80,71,29.89,29.83,29.78,10,8,2,10,9,17,0.04,8,Rain-Thunderstorm,83
2012-10-24,58,51,43,50,46,40,89,85,80,29.89,29.84,29.80,10,8,4,17,9,24,0.10,8,Rain,345
2012-10-25,43,38,33,39,32,25,92,76,59,30.18,29.89,29.75,10,6,0,23,15,30,0.42,8,Fog-Rain-Snow,320
2012-10-26,39,35,31,25,24,22,72,64,56,30.39,30.31,30.20,10,10,10,25,12,35,0.00,6,,268
2012-10-27,43,33,23,27,22,17,88,62,36,30.41,30.37,30.33,10,10,10,13,3,16,0.00,2,,213
2012-10-28,44,36,28,29,25,23,85,69,53,30.38,30.34,30.31,10,10,2,15,7,21,T,7,Snow,148
2012-10-29,45,38,30,26,24,22,69,57,45,30.35,30.32,30.25,10,10,10,15,7,21,0.00,5,,119
2012-10-30,47,35,23,31,26,21,81,67,53,30.29,30.22,30.14,10,10,8,13,4,18,0.00,2,,57
2012-10-31,53,36,19,29,23,17,96,62,27,30.14,30.06,29.97,10,9,4,10,2,13,0.00,2,,327